Time;durP1;ratioP1;P1;durP2;ratioP2;P2;SDS_P1;SDS_P2;PMS_P1;PMS_P2;Temp;Humidity;BMP_temperature;BMP_pressure;BME280_temperature;BME280_humidity;BME280_pressure;Samples;Min_cycle;Max_cycle;Signal;HPM_P1;HPM_P2
2023/05/27 00:00:04;;;;;;;24.27;22.13;;;;;;;;;;5074456;28;20514;-78
2023/05/27 00:02:31;;;;;;;23.77;21.60;;;;;;;;;;5074609;28;20979;-79
2023/05/27 00:04:58;;;;;;;24.27;22.17;;;;;;;;;;5074831;28;20667;-78
2023/05/27 00:07:26;;;;;;;25.03;23.00;;;;;;;;;;5075164;28;20434;-78
2023/05/27 00:09:53;;;;;;;24.77;22.27;;;;;;;;;;5075494;28;20473;-81
2023/05/27 00:12:20;;;;;;;23.07;20.97;;;;;;;;;;5074950;28;20499;-78
2023/05/27 00:14:47;;;;;;;27.03;23.50;;;;;;;;;;5074540;28;20934;-78
2023/05/27 00:17:15;;;;;;;24.37;22.33;;;;;;;;;;5074997;28;20450;-78
2023/05/27 00:19:44;;;;;;;26.87;23.07;;;;;;;;;;5074427;28;20980;-79
2023/05/27 00:22:11;;;;;;;25.77;23.20;;;;;;;;;;5075606;28;20899;-79
2023/05/27 00:24:41;;;;;;;23.73;21.47;;;;;;;;;;5076248;28;20499;-79
2023/05/27 00:27:08;;;;;;;24.03;21.77;;;;;;;;;;5074765;28;20451;-78
2023/05/27 00:29:36;;;;;;;24.07;21.97;;;;;;;;;;5075215;28;20478;-79
2023/05/27 00:32:03;;;;;;;22.93;21.07;;;;;;;;;;5075133;28;20434;-79
2023/05/27 00:34:32;;;;;;;25.70;23.20;;;;;;;;;;5074756;28;20477;-78
2023/05/27 00:36:59;;;;;;;22.60;20.70;;;;;;;;;;5074379;28;20479;-79
2023/05/27 00:39:26;;;;;;;22.97;21.33;;;;;;;;;;5073512;28;20482;-78
2023/05/27 00:41:53;;;;;;;23.30;21.20;;;;;;;;;;5074620;28;20466;-79
2023/05/27 00:44:20;;;;;;;27.43;24.47;;;;;;;;;;5074146;28;20969;-79
2023/05/27 00:46:48;;;;;;;27.07;22.80;;;;;;;;;;5074417;28;20450;-79
2023/05/27 00:49:15;;;;;;;25.83;23.57;;;;;;;;;;5074053;28;20528;-81
2023/05/27 00:51:44;;;;;;;24.60;22.50;;;;;;;;;;5078120;28;20973;-80
2023/05/27 00:54:11;;;;;;;24.80;22.47;;;;;;;;;;5078048;28;20450;-79
2023/05/27 00:56:39;;;;;;;24.77;22.80;;;;;;;;;;5077528;28;20449;-78
2023/05/27 00:59:06;;;;;;;25.37;22.77;;;;;;;;;;5077568;28;20442;-78
2023/05/27 01:01:36;;;;;;;25.00;23.10;;;;;;;;;;5077133;28;20469;-78
2023/05/27 01:04:04;;;;;;;23.90;21.83;;;;;;;;;;5077560;28;20416;-78
2023/05/27 01:06:37;;;;;;;24.23;22.20;;;;;;;;;;5076884;28;20507;-79
2023/05/27 01:09:10;;;;;;;24.47;22.33;;;;;;;;;;5077323;28;20914;-77
2023/05/27 01:11:39;;;;;;;24.40;21.90;;;;;;;;;;5077743;28;20421;-78
2023/05/27 01:14:10;;;;;;;23.57;21.30;;;;;;;;;;5077830;28;20449;-79
2023/05/27 01:16:40;;;;;;;25.07;23.00;;;;;;;;;;5077365;28;20441;-78
2023/05/27 01:19:09;;;;;;;24.97;22.57;;;;;;;;;;5077198;28;20442;-78
2023/05/27 01:21:39;;;;;;;27.83;21.73;;;;;;;;;;5077079;28;20426;-78
2023/05/27 01:24:07;;;;;;;24.50;22.23;;;;;;;;;;5077445;28;20473;-78
2023/05/27 01:26:34;;;;;;;25.10;22.60;;;;;;;;;;5076787;28;20428;-78
2023/05/27 01:29:01;;;;;;;24.17;21.77;;;;;;;;;;5077274;28;20424;-79
2023/05/27 01:31:31;;;;;;;23.63;21.30;;;;;;;;;;5077164;28;20432;-78
2023/05/27 01:34:01;;;;;;;24.93;22.50;;;;;;;;;;5076797;28;20452;-78
2023/05/27 01:36:32;;;;;;;25.37;22.33;;;;;;;;;;5076695;28;20437;-77
2023/05/27 01:39:00;;;;;;;27.03;22.47;;;;;;;;;;5076654;28;20432;-78
2023/05/27 01:41:29;;;;;;;24.50;22.00;;;;;;;;;;5077366;28;20453;-78
2023/05/27 01:43:56;;;;;;;25.00;22.87;;;;;;;;;;5077329;28;20428;-79
2023/05/27 01:46:23;;;;;;;26.93;23.30;;;;;;;;;;5076614;28;20962;-78
2023/05/27 01:48:50;;;;;;;24.30;21.80;;;;;;;;;;5077167;28;20508;-78
2023/05/27 01:51:17;;;;;;;23.73;21.53;;;;;;;;;;5076141;28;20508;-79
2023/05/27 01:53:44;;;;;;;24.03;22.20;;;;;;;;;;5077172;28;20849;-77
2023/05/27 01:56:11;;;;;;;22.77;21.07;;;;;;;;;;5076050;28;20504;-78
2023/05/27 01:58:39;;;;;;;24.17;21.70;;;;;;;;;;5076934;28;20450;-78
2023/05/27 02:01:06;;;;;;;23.17;20.90;;;;;;;;;;5076290;28;20485;-78
2023/05/27 02:03:33;;;;;;;24.67;21.90;;;;;;;;;;5076735;28;20459;-78
2023/05/27 02:06:00;;;;;;;23.20;21.10;;;;;;;;;;5075640;28;20819;-78
2023/05/27 02:08:27;;;;;;;23.43;21.17;;;;;;;;;;5076549;28;20454;-79
2023/05/27 02:10:54;;;;;;;23.20;20.90;;;;;;;;;;5075539;28;21034;-79
2023/05/27 02:13:21;;;;;;;23.30;21.43;;;;;;;;;;5076555;28;20450;-78
2023/05/27 02:15:50;;;;;;;23.40;21.33;;;;;;;;;;5075681;28;20450;-78
2023/05/27 02:18:17;;;;;;;26.63;20.80;;;;;;;;;;5076410;28;20464;-79
2023/05/27 02:20:44;;;;;;;22.37;20.63;;;;;;;;;;5075362;28;20482;-77
2023/05/27 02:23:11;;;;;;;26.43;23.87;;;;;;;;;;5075893;28;20445;-79
2023/05/27 02:25:38;;;;;;;24.47;22.07;;;;;;;;;;5075512;28;20530;-79
2023/05/27 02:28:05;;;;;;;27.23;24.30;;;;;;;;;;5075663;28;20445;-78
2023/05/27 02:30:32;;;;;;;24.00;21.50;;;;;;;;;;5076091;28;20476;-77
2023/05/27 02:33:01;;;;;;;23.93;21.73;;;;;;;;;;5075203;28;20457;-78
2023/05/27 02:35:28;;;;;;;23.23;21.30;;;;;;;;;;5079172;28;20460;-80
2023/05/27 02:37:55;;;;;;;23.77;21.47;;;;;;;;;;5075978;28;20512;-79
2023/05/27 02:40:26;;;;;;;23.53;21.73;;;;;;;;;;5076206;28;21063;-79
2023/05/27 02:42:53;;;;;;;26.57;22.50;;;;;;;;;;5076265;28;20471;-78
2023/05/27 02:45:20;;;;;;;23.90;21.73;;;;;;;;;;5076444;28;20445;-80
2023/05/27 02:47:47;;;;;;;23.57;21.17;;;;;;;;;;5076199;28;20424;-78
2023/05/27 02:50:15;;;;;;;22.63;20.80;;;;;;;;;;5075446;28;20488;-78
2023/05/27 02:52:42;;;;;;;23.57;21.50;;;;;;;;;;5075847;28;20420;-78
2023/05/27 02:55:09;;;;;;;24.90;22.50;;;;;;;;;;5075919;28;20450;-79
2023/05/27 02:57:36;;;;;;;24.00;21.63;;;;;;;;;;5075239;28;20454;-79
2023/05/27 03:00:03;;;;;;;32.37;22.20;;;;;;;;;;5075319;28;20820;-80
2023/05/27 03:02:31;;;;;;;26.20;23.57;;;;;;;;;;5074572;28;20470;-79
2023/05/27 03:05:00;;;;;;;25.20;22.80;;;;;;;;;;5075586;28;20449;-79
2023/05/27 03:07:29;;;;;;;23.13;21.03;;;;;;;;;;5075174;28;20454;-79
2023/05/27 03:09:57;;;;;;;23.50;21.50;;;;;;;;;;5075066;28;20564;-78
2023/05/27 03:12:24;;;;;;;23.20;21.30;;;;;;;;;;5074467;28;20440;-79
2023/05/27 03:14:51;;;;;;;25.23;22.77;;;;;;;;;;5075384;28;20438;-79
2023/05/27 03:17:18;;;;;;;23.50;21.27;;;;;;;;;;5074454;28;20476;-78
2023/05/27 03:19:45;;;;;;;26.90;22.93;;;;;;;;;;5075193;28;20519;-79
2023/05/27 03:22:12;;;;;;;24.57;22.50;;;;;;;;;;5075163;28;20442;-79
2023/05/27 03:24:41;;;;;;;27.43;22.17;;;;;;;;;;5075009;28;20537;-78
2023/05/27 03:27:08;;;;;;;24.37;21.87;;;;;;;;;;5073477;28;20528;-76
2023/05/27 03:29:35;;;;;;;24.23;21.73;;;;;;;;;;5071995;28;20535;-75
2023/05/27 03:32:02;;;;;;;24.73;22.17;;;;;;;;;;5073361;28;20438;-77
2023/05/27 03:34:29;;;;;;;23.70;21.47;;;;;;;;;;5073115;28;20504;-75
2023/05/27 03:36:56;;;;;;;25.57;23.03;;;;;;;;;;5072228;28;21004;-76
2023/05/27 03:39:23;;;;;;;23.83;21.47;;;;;;;;;;5072145;28;20914;-76
2023/05/27 03:41:53;;;;;;;23.03;20.93;;;;;;;;;;5072772;28;20429;-77
2023/05/27 03:44:20;;;;;;;24.47;22.07;;;;;;;;;;5073150;28;20449;-77
2023/05/27 03:46:47;;;;;;;24.67;22.30;;;;;;;;;;5072948;28;20453;-75
2023/05/27 03:49:14;;;;;;;24.07;21.83;;;;;;;;;;5073118;28;21843;-75
2023/05/27 03:51:41;;;;;;;23.43;21.10;;;;;;;;;;5072091;28;20473;-75
2023/05/27 03:54:08;;;;;;;28.10;21.80;;;;;;;;;;5072308;28;20934;-77
2023/05/27 03:56:35;;;;;;;22.47;20.67;;;;;;;;;;5071956;28;21104;-75
2023/05/27 03:59:03;;;;;;;22.67;20.97;;;;;;;;;;5072438;28;20424;-76
2023/05/27 04:01:31;;;;;;;24.10;22.00;;;;;;;;;;5072733;28;20460;-76
2023/05/27 04:03:58;;;;;;;23.83;21.67;;;;;;;;;;5072489;28;20569;-77
2023/05/27 04:06:25;;;;;;;22.80;20.80;;;;;;;;;;5072204;28;20461;-76
2023/05/27 04:08:52;;;;;;;24.47;22.30;;;;;;;;;;5072124;28;20488;-76
2023/05/27 04:11:20;;;;;;;30.23;25.53;;;;;;;;;;5072738;28;20441;-77
2023/05/27 04:13:48;;;;;;;22.83;21.03;;;;;;;;;;5072731;28;20446;-77
2023/05/27 04:16:17;;;;;;;24.77;22.63;;;;;;;;;;5072066;28;20457;-77
2023/05/27 04:18:48;;;;;;;26.03;23.50;;;;;;;;;;5072643;28;20468;-77
2023/05/27 04:21:15;;;;;;;24.60;22.30;;;;;;;;;;5072647;28;20488;-76
2023/05/27 04:23:43;;;;;;;24.50;22.17;;;;;;;;;;5072572;28;20453;-76
2023/05/27 04:26:10;;;;;;;24.63;22.17;;;;;;;;;;5075609;28;20420;-76
2023/05/27 04:28:38;;;;;;;23.87;21.50;;;;;;;;;;5076636;28;20893;-76
2023/05/27 04:31:05;;;;;;;23.73;21.67;;;;;;;;;;5075969;28;20481;-78
2023/05/27 04:33:35;;;;;;;24.13;21.73;;;;;;;;;;5077022;28;20420;-76
2023/05/27 04:36:02;;;;;;;25.17;21.97;;;;;;;;;;5076528;28;20500;-76
2023/05/27 04:38:31;;;;;;;23.53;21.33;;;;;;;;;;5076685;28;20558;-76
2023/05/27 04:40:58;;;;;;;23.97;21.90;;;;;;;;;;5075661;28;20983;-75
2023/05/27 04:43:26;;;;;;;24.00;21.67;;;;;;;;;;5076610;28;20450;-75
2023/05/27 04:45:53;;;;;;;23.53;21.60;;;;;;;;;;5076541;28;20442;-78
2023/05/27 04:48:23;;;;;;;25.23;22.53;;;;;;;;;;5077236;28;20520;-78
2023/05/27 04:50:53;;;;;;;23.80;21.80;;;;;;;;;;5076180;28;20957;-78
2023/05/27 04:53:20;;;;;;;24.50;22.20;;;;;;;;;;5076999;28;20517;-78
2023/05/27 04:55:47;;;;;;;24.00;21.90;;;;;;;;;;5076636;28;20504;-77
2023/05/27 04:58:14;;;;;;;25.07;22.47;;;;;;;;;;5077181;28;20472;-77
2023/05/27 05:00:49;;;;;;;23.67;21.60;;;;;;;;;;5076684;28;20521;-77
2023/05/27 05:03:20;;;;;;;22.90;21.17;;;;;;;;;;5076486;28;20451;-78
2023/05/27 05:05:48;;;;;;;23.30;20.77;;;;;;;;;;5076086;28;20902;-77
2023/05/27 05:08:16;;;;;;;24.47;21.90;;;;;;;;;;5076858;28;20511;-78
2023/05/27 05:10:43;;;;;;;24.83;22.53;;;;;;;;;;5075819;28;20973;-77
2023/05/27 05:13:10;;;;;;;22.40;20.70;;;;;;;;;;5077025;28;20445;-77
2023/05/27 05:15:37;;;;;;;23.70;21.50;;;;;;;;;;5075488;28;20479;-75
2023/05/27 05:18:04;;;;;;;23.47;21.20;;;;;;;;;;5075562;28;20420;-75
2023/05/27 05:20:31;;;;;;;22.33;20.73;;;;;;;;;;5075047;28;20482;-77
2023/05/27 05:22:58;;;;;;;24.33;21.27;;;;;;;;;;5076350;28;20453;-77
2023/05/27 05:25:26;;;;;;;26.97;20.80;;;;;;;;;;5076254;28;20500;-77
2023/05/27 05:27:54;;;;;;;22.57;20.33;;;;;;;;;;5076175;28;20566;-78
2023/05/27 05:30:21;;;;;;;22.67;20.50;;;;;;;;;;5076248;28;20444;-78
2023/05/27 05:32:48;;;;;;;22.20;20.70;;;;;;;;;;5076126;28;20478;-77
2023/05/27 05:35:15;;;;;;;23.43;21.10;;;;;;;;;;5076114;28;20457;-77
2023/05/27 05:37:42;;;;;;;23.87;21.17;;;;;;;;;;5073519;28;20457;-76
2023/05/27 05:40:11;;;;;;;22.60;20.60;;;;;;;;;;5075278;28;20452;-77
2023/05/27 05:42:39;;;;;;;22.90;20.70;;;;;;;;;;5075184;28;20522;-78
2023/05/27 05:45:07;;;;;;;26.37;22.20;;;;;;;;;;5075300;28;20575;-76
2023/05/27 05:47:34;;;;;;;23.50;21.23;;;;;;;;;;5074841;28;20460;-76
2023/05/27 05:50:01;;;;;;;24.40;21.93;;;;;;;;;;5074301;28;20510;-77
2023/05/27 05:52:29;;;;;;;27.90;21.83;;;;;;;;;;5074654;28;20432;-77
2023/05/27 05:54:56;;;;;;;22.63;20.77;;;;;;;;;;5074873;28;20465;-76
2023/05/27 05:57:23;;;;;;;22.57;20.37;;;;;;;;;;5074948;28;20511;-76
2023/05/27 06:02:55;;;;;;;21.40;19.67;;;;;;;;;;5072650;28;20811;-77
2023/05/27 06:05:25;;;;;;;22.80;20.60;;;;;;;;;;5073263;28;20793;-77
2023/05/27 06:07:53;;;;;;;21.23;19.73;;;;;;;;;;5074625;28;20404;-77
2023/05/27 06:10:20;;;;;;;23.07;21.17;;;;;;;;;;5054591;28;20532;-77
2023/05/27 06:12:47;;;;;;;23.53;21.13;;;;;;;;;;5054303;28;20927;-77
2023/05/27 06:15:14;;;;;;;22.97;20.83;;;;;;;;;;5054698;28;20425;-76
2023/05/27 06:17:41;;;;;;;21.90;19.90;;;;;;;;;;5053881;28;20968;-77
2023/05/27 06:20:10;;;;;;;22.73;20.43;;;;;;;;;;5053520;28;20508;-78
2023/05/27 06:22:37;;;;;;;24.97;22.03;;;;;;;;;;5054753;28;20517;-77
2023/05/27 06:25:04;;;;;;;23.97;21.77;;;;;;;;;;5054504;28;20455;-77
2023/05/27 06:27:31;;;;;;;29.73;23.40;;;;;;;;;;5053920;28;20446;-77
2023/05/27 06:29:58;;;;;;;24.70;22.40;;;;;;;;;;5053101;28;20525;-78
2023/05/27 06:32:25;;;;;;;23.20;21.50;;;;;;;;;;5053985;28;20965;-77
2023/05/27 06:34:52;;;;;;;24.47;21.90;;;;;;;;;;5054867;28;20943;-77
2023/05/27 06:37:20;;;;;;;22.80;20.90;;;;;;;;;;5053611;28;20450;-76
2023/05/27 06:39:48;;;;;;;23.30;21.43;;;;;;;;;;5054153;28;20467;-77
2023/05/27 06:42:15;;;;;;;29.40;23.10;;;;;;;;;;5054149;28;20473;-76
2023/05/27 06:44:42;;;;;;;22.53;20.77;;;;;;;;;;5054249;28;20508;-77
2023/05/27 06:47:09;;;;;;;22.83;21.30;;;;;;;;;;5053304;28;20450;-76
2023/05/27 06:49:36;;;;;;;25.73;23.67;;;;;;;;;;5053303;28;20533;-77
2023/05/27 06:52:03;;;;;;;23.47;21.40;;;;;;;;;;5053840;28;20482;-76
2023/05/27 06:54:31;;;;;;;24.17;22.20;;;;;;;;;;5053969;28;20501;-78
2023/05/27 06:56:58;;;;;;;24.70;22.60;;;;;;;;;;5053659;28;20458;-76
2023/05/27 06:59:25;;;;;;;25.90;23.47;;;;;;;;;;5053521;28;20501;-76
2023/05/27 07:01:53;;;;;;;29.97;22.60;;;;;;;;;;5052773;28;20998;-77
2023/05/27 07:04:20;;;;;;;24.27;22.27;;;;;;;;;;5053568;28;20539;-76
2023/05/27 07:06:47;;;;;;;24.50;22.40;;;;;;;;;;5053125;28;20450;-77
2023/05/27 07:09:14;;;;;;;24.83;22.63;;;;;;;;;;5054044;28;20461;-76
2023/05/27 07:11:42;;;;;;;24.40;22.30;;;;;;;;;;5053332;28;20905;-77
2023/05/27 07:14:10;;;;;;;24.60;22.20;;;;;;;;;;5053560;28;20454;-77
2023/05/27 07:16:37;;;;;;;23.53;21.47;;;;;;;;;;5053223;28;20457;-76
2023/05/27 07:19:04;;;;;;;27.73;22.93;;;;;;;;;;5052421;28;21015;-78
2023/05/27 07:21:30;;;;;;;23.53;21.63;;;;;;;;;;5053222;28;20556;-77
2023/05/27 07:23:58;;;;;;;24.00;21.87;;;;;;;;;;5073057;28;20527;-76
2023/05/27 07:26:25;;;;;;;24.93;22.97;;;;;;;;;;5072251;28;20527;-77
2023/05/27 07:28:54;;;;;;;25.10;23.10;;;;;;;;;;5072475;28;20439;-76
2023/05/27 07:31:21;;;;;;;24.00;21.90;;;;;;;;;;5073006;28;20454;-76
2023/05/27 07:33:48;;;;;;;24.07;22.10;;;;;;;;;;5073169;28;20515;-77
2023/05/27 07:36:15;;;;;;;24.27;22.33;;;;;;;;;;5072378;28;20424;-76
2023/05/27 07:38:42;;;;;;;25.83;23.57;;;;;;;;;;5072514;28;20425;-76
2023/05/27 07:41:09;;;;;;;28.23;22.90;;;;;;;;;;5072473;28;20506;-77
2023/05/27 07:43:36;;;;;;;24.27;22.37;;;;;;;;;;5073343;28;20478;-77
2023/05/27 07:46:04;;;;;;;26.07;23.37;;;;;;;;;;5073499;28;20486;-77
2023/05/27 07:48:31;;;;;;;24.63;22.83;;;;;;;;;;5073510;28;20445;-82
2023/05/27 07:50:58;;;;;;;25.23;22.97;;;;;;;;;;5072820;28;20539;-77
2023/05/27 07:53:25;;;;;;;24.40;22.37;;;;;;;;;;5074324;28;20442;-79
2023/05/27 07:55:52;;;;;;;24.93;22.93;;;;;;;;;;5073003;28;20499;-77
2023/05/27 07:58:19;;;;;;;25.23;22.77;;;;;;;;;;5073754;28;20434;-78
2023/05/27 08:00:46;;;;;;;24.17;22.27;;;;;;;;;;5077964;28;20519;-78
2023/05/27 08:03:15;;;;;;;26.00;23.60;;;;;;;;;;5080746;28;20551;-78
2023/05/27 08:05:42;;;;;;;25.03;22.63;;;;;;;;;;5079951;28;20423;-78
2023/05/27 08:08:09;;;;;;;25.20;22.50;;;;;;;;;;5073531;28;20508;-78
2023/05/27 08:10:36;;;;;;;24.93;23.13;;;;;;;;;;5072775;28;20483;-78
2023/05/27 08:13:03;;;;;;;25.33;23.00;;;;;;;;;;5073320;28;20794;-78
2023/05/27 08:15:30;;;;;;;24.10;22.37;;;;;;;;;;5073235;28;20446;-79
2023/05/27 08:17:57;;;;;;;25.77;23.30;;;;;;;;;;5073154;28;20427;-79
2023/05/27 08:20:25;;;;;;;26.27;23.80;;;;;;;;;;5073202;28;21102;-79
2023/05/27 08:22:53;;;;;;;26.57;24.83;;;;;;;;;;5073709;28;20483;-78
2023/05/27 08:25:20;;;;;;;25.07;23.00;;;;;;;;;;5073872;28;20528;-78
2023/05/27 08:27:48;;;;;;;25.93;23.40;;;;;;;;;;5072943;28;20479;-78
2023/05/27 08:30:15;;;;;;;31.47;25.60;;;;;;;;;;5072175;28;20985;-77
2023/05/27 08:32:42;;;;;;;24.13;22.33;;;;;;;;;;5073296;28;20500;-78
2023/05/27 08:35:10;;;;;;;24.10;22.33;;;;;;;;;;5073455;28;20994;-78
2023/05/27 08:37:38;;;;;;;25.90;23.90;;;;;;;;;;5073095;28;20554;-78
2023/05/27 08:40:06;;;;;;;28.13;25.60;;;;;;;;;;5074333;28;20840;-78
2023/05/27 08:42:33;;;;;;;26.70;24.50;;;;;;;;;;5072584;28;20850;-78
2023/05/27 08:45:00;;;;;;;25.97;24.00;;;;;;;;;;5073192;28;20432;-78
2023/05/27 08:47:27;;;;;;;25.03;22.93;;;;;;;;;;5073016;28;20442;-78
2023/05/27 08:49:54;;;;;;;25.47;23.27;;;;;;;;;;5072867;28;20479;-77
2023/05/27 08:52:21;;;;;;;25.57;23.00;;;;;;;;;;5072764;28;20459;-78
2023/05/27 08:54:50;;;;;;;25.07;23.10;;;;;;;;;;5073475;28;20499;-78
2023/05/27 08:57:18;;;;;;;25.97;23.37;;;;;;;;;;5072466;28;20475;-78
2023/05/27 08:59:46;;;;;;;25.37;23.40;;;;;;;;;;5072925;28;20524;-77
2023/05/27 09:02:14;;;;;;;26.77;24.70;;;;;;;;;;5072924;28;20521;-77
2023/05/27 09:04:41;;;;;;;25.30;23.23;;;;;;;;;;5073290;28;20547;-78
2023/05/27 09:07:08;;;;;;;26.03;23.83;;;;;;;;;;5072189;28;20477;-77
2023/05/27 09:09:36;;;;;;;27.10;24.83;;;;;;;;;;5071473;28;20553;-78
2023/05/27 09:12:05;;;;;;;26.93;25.10;;;;;;;;;;5075420;28;20450;-77
2023/05/27 09:14:32;;;;;;;27.60;25.30;;;;;;;;;;5075871;28;20454;-77
2023/05/27 09:17:06;;;;;;;25.87;23.60;;;;;;;;;;5075080;28;20974;-76
2023/05/27 09:19:33;;;;;;;26.73;24.97;;;;;;;;;;5075571;28;20915;-78
2023/05/27 09:22:00;;;;;;;27.53;24.10;;;;;;;;;;5075536;28;20421;-77
2023/05/27 09:24:27;;;;;;;27.70;25.07;;;;;;;;;;5076070;28;20450;-77
2023/05/27 09:26:55;;;;;;;26.37;24.33;;;;;;;;;;5075660;28;20803;-78
2023/05/27 09:29:26;;;;;;;27.30;25.13;;;;;;;;;;5076113;28;20474;-79
2023/05/27 09:31:55;;;;;;;24.30;22.60;;;;;;;;;;5076024;28;20450;-77
2023/05/27 09:34:22;;;;;;;26.40;24.30;;;;;;;;;;5074724;28;20457;-76
2023/05/27 09:36:50;;;;;;;25.77;23.57;;;;;;;;;;5075093;28;20425;-78
2023/05/27 09:39:18;;;;;;;25.17;23.37;;;;;;;;;;5074634;28;20473;-77
2023/05/27 09:41:50;;;;;;;27.10;24.83;;;;;;;;;;5075636;28;20447;-77
2023/05/27 09:44:18;;;;;;;24.00;22.30;;;;;;;;;;5074479;28;20834;-77
2023/05/27 09:46:46;;;;;;;24.67;22.83;;;;;;;;;;5074375;28;20505;-77
2023/05/27 09:49:15;;;;;;;25.37;23.43;;;;;;;;;;5075297;28;20932;-76
2023/05/27 09:51:42;;;;;;;24.60;22.77;;;;;;;;;;5074969;28;20483;-77
2023/05/27 09:54:10;;;;;;;23.83;22.10;;;;;;;;;;5074845;28;20977;-76
2023/05/27 09:56:37;;;;;;;25.53;23.20;;;;;;;;;;5074626;28;20440;-78
2023/05/27 09:59:06;;;;;;;26.03;23.77;;;;;;;;;;5074205;28;20503;-79
2023/05/27 10:01:33;;;;;;;25.43;23.40;;;;;;;;;;5074283;28;20456;-77
2023/05/27 10:04:01;;;;;;;26.73;24.70;;;;;;;;;;5074766;28;20874;-77
2023/05/27 10:06:29;;;;;;;25.07;23.03;;;;;;;;;;5074332;28;20479;-77
2023/05/27 10:08:56;;;;;;;26.27;24.07;;;;;;;;;;5074472;28;20920;-78
2023/05/27 10:11:23;;;;;;;25.13;23.13;;;;;;;;;;5072641;28;20462;-77
2023/05/27 10:13:51;;;;;;;26.10;23.90;;;;;;;;;;5075025;28;20931;-77
2023/05/27 10:16:21;;;;;;;25.53;23.73;;;;;;;;;;5074356;28;20414;-77
2023/05/27 10:18:52;;;;;;;25.07;23.10;;;;;;;;;;5074908;28;20431;-77
2023/05/27 10:21:22;;;;;;;26.43;24.40;;;;;;;;;;5073996;28;20474;-76
2023/05/27 10:23:54;;;;;;;25.43;23.67;;;;;;;;;;5073634;28;20441;-77
2023/05/27 10:26:32;;;;;;;26.60;24.20;;;;;;;;;;5074138;28;20433;-76
2023/05/27 10:29:07;;;;;;;24.53;22.53;;;;;;;;;;5074205;28;20900;-77
2023/05/27 10:31:34;;;;;;;27.90;24.83;;;;;;;;;;5074164;28;20414;-77
2023/05/27 10:34:01;;;;;;;26.93;24.97;;;;;;;;;;5073661;28;20479;-77
2023/05/27 10:36:31;;;;;;;26.87;24.90;;;;;;;;;;5073587;28;20430;-77
2023/05/27 10:39:00;;;;;;;26.13;24.00;;;;;;;;;;5073686;28;20805;-77
2023/05/27 10:41:27;;;;;;;26.33;24.13;;;;;;;;;;5073922;28;20430;-77
2023/05/27 10:43:57;;;;;;;26.00;24.17;;;;;;;;;;5073261;28;21044;-77
2023/05/27 10:46:24;;;;;;;25.50;23.47;;;;;;;;;;5073915;28;20459;-77
2023/05/27 10:48:51;;;;;;;25.67;23.67;;;;;;;;;;5074217;28;20459;-77
2023/05/27 10:51:18;;;;;;;24.90;23.10;;;;;;;;;;5073947;28;20479;-77
2023/05/27 10:53:47;;;;;;;24.20;22.70;;;;;;;;;;5074143;28;20417;-77
2023/05/27 10:56:15;;;;;;;25.87;24.00;;;;;;;;;;5073210;28;20984;-79
2023/05/27 10:58:42;;;;;;;25.57;23.40;;;;;;;;;;5074235;28;20450;-77
2023/05/27 11:01:10;;;;;;;25.17;23.57;;;;;;;;;;5073183;28;20488;-77
2023/05/27 11:03:42;;;;;;;24.40;22.70;;;;;;;;;;5074016;28;20458;-78
2023/05/27 11:06:11;;;;;;;24.33;22.73;;;;;;;;;;5073996;28;20790;-77
2023/05/27 11:08:38;;;;;;;25.77;23.40;;;;;;;;;;5074455;28;20507;-77
2023/05/27 11:11:08;;;;;;;24.30;22.20;;;;;;;;;;5074438;28;20471;-77
2023/05/27 11:13:36;;;;;;;24.20;22.30;;;;;;;;;;5074399;28;20452;-77
2023/05/27 11:16:04;;;;;;;25.10;23.20;;;;;;;;;;5073591;28;20476;-84
2023/05/27 11:18:38;;;;;;;23.50;21.90;;;;;;;;;;5074183;28;20455;-78
2023/05/27 11:21:05;;;;;;;24.10;22.40;;;;;;;;;;5073249;28;20484;-79
2023/05/27 11:23:35;;;;;;;24.90;22.97;;;;;;;;;;5074710;28;20486;-78
2023/05/27 11:26:02;;;;;;;24.10;22.30;;;;;;;;;;5074012;28;20833;-78
2023/05/27 11:28:31;;;;;;;24.20;22.30;;;;;;;;;;5074098;28;20967;-78
2023/05/27 11:30:59;;;;;;;24.60;22.80;;;;;;;;;;5073604;28;20983;-78
2023/05/27 11:33:31;;;;;;;26.17;24.10;;;;;;;;;;5073735;28;20426;-78
2023/05/27 11:36:04;;;;;;;24.73;22.83;;;;;;;;;;5073363;28;20416;-78
2023/05/27 11:38:32;;;;;;;24.20;22.60;;;;;;;;;;5074761;28;20877;-78
2023/05/27 11:41:08;;;;;;;24.33;22.40;;;;;;;;;;5074188;28;20463;-78
2023/05/27 11:43:36;;;;;;;24.50;22.17;;;;;;;;;;5075091;28;20445;-76
2023/05/27 11:46:04;;;;;;;23.37;21.77;;;;;;;;;;5073815;28;20425;-77
2023/05/27 11:48:31;;;;;;;24.90;22.87;;;;;;;;;;5075282;28;20450;-77
2023/05/27 11:50:58;;;;;;;25.10;23.07;;;;;;;;;;5072856;28;20475;-77
2023/05/27 11:53:29;;;;;;;24.10;22.20;;;;;;;;;;5073671;28;20421;-78
2023/05/27 11:55:57;;;;;;;24.40;22.50;;;;;;;;;;5073591;28;20909;-76
2023/05/27 11:58:24;;;;;;;24.50;22.70;;;;;;;;;;5074130;28;20476;-78
2023/05/27 12:00:53;;;;;;;24.57;22.57;;;;;;;;;;5073482;28;20460;-77
2023/05/27 12:03:20;;;;;;;25.17;23.13;;;;;;;;;;5073558;28;20994;-77
2023/05/27 12:05:47;;;;;;;24.43;22.77;;;;;;;;;;5072906;28;20455;-77
2023/05/27 12:08:14;;;;;;;24.70;22.80;;;;;;;;;;5072382;28;20485;-76
2023/05/27 12:10:41;;;;;;;25.10;22.97;;;;;;;;;;5073705;28;20478;-77
2023/05/27 12:13:08;;;;;;;24.20;22.53;;;;;;;;;;5073574;28;20481;-77
2023/05/27 12:15:36;;;;;;;23.90;22.20;;;;;;;;;;5072848;28;20498;-76
2023/05/27 12:18:04;;;;;;;23.07;21.60;;;;;;;;;;5072843;28;20970;-77
2023/05/27 12:20:31;;;;;;;24.40;22.50;;;;;;;;;;5072550;28;20459;-77
2023/05/27 12:22:58;;;;;;;23.93;22.30;;;;;;;;;;5073161;28;20434;-79
2023/05/27 12:25:25;;;;;;;24.47;22.67;;;;;;;;;;5072947;28;20872;-78
2023/05/27 12:27:52;;;;;;;22.90;21.40;;;;;;;;;;5073009;28;20516;-78
2023/05/27 12:30:20;;;;;;;23.10;21.40;;;;;;;;;;5073753;28;20446;-78
2023/05/27 12:32:47;;;;;;;22.83;21.43;;;;;;;;;;5074206;28;20423;-79
2023/05/27 12:35:15;;;;;;;23.90;22.20;;;;;;;;;;5074270;28;20456;-77
2023/05/27 12:37:42;;;;;;;24.97;23.10;;;;;;;;;;5072269;28;20505;-76
2023/05/27 12:40:14;;;;;;;23.30;21.73;;;;;;;;;;5072192;28;20495;-76
2023/05/27 12:42:40;;;;;;;23.40;21.80;;;;;;;;;;5072690;28;20412;-77
2023/05/27 12:45:08;;;;;;;23.57;21.63;;;;;;;;;;5072541;28;20962;-76
2023/05/27 12:47:35;;;;;;;23.47;22.00;;;;;;;;;;5074967;28;20437;-76
2023/05/27 12:50:03;;;;;;;25.23;23.07;;;;;;;;;;5076047;28;20453;-76
2023/05/27 12:52:32;;;;;;;23.60;21.80;;;;;;;;;;5076402;28;20502;-76
2023/05/27 12:54:59;;;;;;;24.47;22.30;;;;;;;;;;5078065;28;20426;-77
2023/05/27 12:57:26;;;;;;;24.03;22.47;;;;;;;;;;5077638;28;20423;-78
2023/05/27 12:59:53;;;;;;;23.63;22.03;;;;;;;;;;5080239;28;20824;-80
2023/05/27 13:02:20;;;;;;;25.60;23.77;;;;;;;;;;5085625;28;20499;-81
2023/05/27 13:04:47;;;;;;;24.23;22.73;;;;;;;;;;5079163;28;20467;-81
2023/05/27 13:07:15;;;;;;;25.53;23.10;;;;;;;;;;5079630;28;20863;-76
2023/05/27 13:09:43;;;;;;;24.53;22.60;;;;;;;;;;5075721;28;20850;-76
2023/05/27 13:12:10;;;;;;;25.47;23.57;;;;;;;;;;5075874;28;20448;-75
2023/05/27 13:14:37;;;;;;;23.70;22.13;;;;;;;;;;5076543;28;20424;-76
2023/05/27 13:17:06;;;;;;;25.60;23.43;;;;;;;;;;5076850;28;20499;-77
2023/05/27 13:19:33;;;;;;;25.27;23.57;;;;;;;;;;5077359;28;20463;-77
2023/05/27 13:22:00;;;;;;;27.00;23.73;;;;;;;;;;5076278;28;20842;-77
2023/05/27 13:24:27;;;;;;;24.33;22.37;;;;;;;;;;5075777;28;20459;-77
2023/05/27 13:26:55;;;;;;;25.20;23.60;;;;;;;;;;5075404;28;20458;-77
2023/05/27 13:29:22;;;;;;;24.27;22.60;;;;;;;;;;5076425;28;20793;-77
2023/05/27 13:31:49;;;;;;;24.40;22.50;;;;;;;;;;5075906;28;20427;-78
2023/05/27 13:34:17;;;;;;;25.40;23.70;;;;;;;;;;5077127;28;20503;-76
2023/05/27 13:36:44;;;;;;;24.40;22.90;;;;;;;;;;5077239;28;20439;-79
2023/05/27 13:39:11;;;;;;;24.90;23.13;;;;;;;;;;5078169;28;20432;-76
2023/05/27 13:41:38;;;;;;;24.10;22.10;;;;;;;;;;5076429;28;20416;-76
2023/05/27 13:44:07;;;;;;;25.00;23.17;;;;;;;;;;5076676;28;20810;-76
2023/05/27 13:46:34;;;;;;;23.93;22.13;;;;;;;;;;5075480;28;20506;-76
2023/05/27 13:49:01;;;;;;;26.80;24.80;;;;;;;;;;5076178;28;20824;-76
2023/05/27 13:51:28;;;;;;;24.20;22.30;;;;;;;;;;5075626;28;20450;-76
2023/05/27 13:53:55;;;;;;;25.10;23.20;;;;;;;;;;5075806;28;20420;-76
2023/05/27 13:56:22;;;;;;;24.03;22.43;;;;;;;;;;5076060;28;20467;-76
2023/05/27 13:58:49;;;;;;;25.33;23.33;;;;;;;;;;5075501;28;20527;-76
2023/05/27 14:01:18;;;;;;;23.93;22.33;;;;;;;;;;5075678;28;20497;-76
2023/05/27 14:03:45;;;;;;;25.30;23.40;;;;;;;;;;5076432;28;20451;-77
2023/05/27 14:06:12;;;;;;;24.47;22.60;;;;;;;;;;5077007;28;20449;-77
2023/05/27 14:08:39;;;;;;;24.87;23.07;;;;;;;;;;5075692;28;20457;-76
2023/05/27 14:11:06;;;;;;;26.80;24.90;;;;;;;;;;5075601;28;20478;-77
2023/05/27 14:13:33;;;;;;;24.77;23.07;;;;;;;;;;5074906;28;20448;-77
2023/05/27 14:16:01;;;;;;;26.07;23.90;;;;;;;;;;5074830;28;20754;-76
2023/05/27 14:18:29;;;;;;;24.97;23.00;;;;;;;;;;5075270;28;20567;-76
2023/05/27 14:20:56;;;;;;;24.57;22.87;;;;;;;;;;5075318;28;20965;-80